Latest Weather Observations for Badgingarra

IDW60801

Issued at 3:32 pm WST Monday 8 February 2016 (issued every 30 minutes, with the page automatically refreshed every 10 minutes)

About weather observations | Map of weather stations | Latest weather observations for WA | Other Formats
Station Details ID: 009037 Name: BADGINGARRA RESEARCH STN Lat: -30.34 Lon: 115.54 Height: 275.0 m
Data from the previous 72 hours. | See also: Recent months at Badgingarra
Date/Time
WST
Temp
°C
App
Temp
°C
Dew
Point
Rel
Hum
%
Delta-T
°C
Wind Press
QNH
hPa
Press
MSL
hPa
Rain
since 9 am
mm
Dir
 
Spd
km/h
Gust
km/h
Spd
kts
Gust
kts
08/03:30pm 40.7 37.1 3.1 10 20.4 ESE 11 22 6 12 - - 0.0
08/03:00pm 40.5 36.9 3.0 10 20.3 ESE 11 26 6 14 - - 0.0
08/02:30pm 40.3 35.8 4.2 11 19.8 NE 17 33 9 18 - - 0.0
08/02:00pm 39.8 36.0 3.8 11 19.6 ENE 13 30 7 16 - - 0.0
08/01:30pm 40.3 37.7 4.2 11 19.8 E 7 15 4 8 - - 0.0
08/01:00pm 39.3 34.3 3.4 11 19.4 NNE 19 30 10 16 - - 0.0
08/12:30pm 39.7 35.5 3.7 11 19.6 NE 15 24 8 13 - - 0.0
08/12:00pm 38.9 35.6 4.4 12 18.9 NE 11 22 6 12 - - 0.0
08/11:30am 39.2 33.8 4.6 12 19.0 NNE 22 32 12 17 - - 0.0
08/11:00am 38.6 33.0 5.3 13 18.4 NNE 24 35 13 19 - - 0.0
08/10:30am 37.5 30.8 5.5 14 17.7 NNE 30 43 16 23 - - 0.0
08/10:00am 35.9 28.5 4.2 14 17.0 NNE 32 43 17 23 - - 0.0
08/09:30am 34.9 28.0 4.4 15 16.3 NE 30 41 16 22 - - 0.0
08/09:00am 33.3 25.4 4.1 16 15.4 NE 35 50 19 27 - - 0.0
08/08:30am 32.1 24.7 4.0 17 14.7 NE 32 44 17 24 - - 0.0
08/08:00am 30.3 23.7 4.1 19 13.6 NE 28 43 15 23 - - 0.0
08/07:30am 28.9 21.7 3.0 19 13.1 NE 30 37 16 20 - - 0.0
08/07:00am 27.7 21.2 2.7 20 12.5 ENE 26 35 14 19 - - 0.0
08/06:30am 26.7 20.2 2.6 21 11.9 ENE 26 33 14 18 - - 0.0
08/06:00am 25.6 19.8 2.3 22 11.4 ENE 22 30 12 16 - - 0.0
08/05:30am 25.8 19.7 2.5 22 11.4 ENE 24 30 13 16 - - 0.0
08/05:00am 25.8 20.1 3.1 23 11.3 ENE 22 28 12 15 - - 0.0
08/04:30am 26.3 20.2 2.9 22 11.6 ENE 24 32 13 17 - - 0.0
08/04:00am 26.5 20.5 3.1 22 11.7 ENE 24 28 13 15 - - 0.0
08/03:30am 26.7 20.7 3.2 22 11.8 ENE 24 30 13 16 - - 0.0
08/03:00am 27.1 21.9 3.6 22 11.9 ENE 20 26 11 14 - - 0.0
08/02:30am 27.7 22.1 3.4 21 12.3 ENE 22 28 12 15 - - 0.0
08/02:00am 28.1 22.9 3.7 21 12.4 E 20 26 11 14 - - 0.0
08/01:30am 28.4 23.3 4.0 21 12.5 E 20 30 11 16 - - 0.0
08/01:00am 28.4 23.6 4.6 22 12.3 E 19 28 10 15 - - 0.0
08/12:30am 28.7 23.9 4.9 22 12.4 ESE 19 24 10 13 - - 0.0
08/12:00am 28.0 24.2 5.6 24 11.8 SE 15 19 8 10 - - 0.0
 
Date/Time
WST
Temp
°C
App
Temp
°C
Dew
Point
Rel
Hum
%
Delta-T
°C
Wind Press
QNH
hPa
Press
MSL
hPa
Rain
since 9 am
mm
Dir
 
Spd
km/h
Gust
km/h
Spd
kts
Gust
kts
07/11:30pm 27.1 23.4 6.5 27 10.9 SSE 15 19 8 10 - - 0.0
07/11:00pm 26.0 22.5 7.1 30 10.1 SSE 15 17 8 9 - - 0.0
07/10:30pm 27.4 23.2 7.3 28 10.8 SSE 19 24 10 13 - - 0.0
07/10:00pm 27.6 23.1 6.9 27 11.1 SSE 20 24 11 13 - - 0.0
07/09:30pm 28.3 23.4 7.0 26 11.5 S 22 26 12 14 - - 0.0
07/09:00pm 29.4 24.5 6.7 24 12.3 SSE 22 30 12 16 - - 0.0
07/08:30pm 30.3 24.5 6.2 22 13.0 SSE 26 33 14 18 - - 0.0
07/08:00pm 30.8 25.1 6.6 22 13.1 S 26 32 14 17 - - 0.0
07/07:30pm 32.0 26.4 7.0 21 13.8 SSW 26 33 14 18 - - 0.0
07/07:00pm 33.6 28.1 6.0 18 15.1 S 24 32 13 17 - - 0.0
07/06:30pm 36.8 32.6 1.5 11 18.3 ESE 13 20 7 11 - - 0.0
07/06:00pm 37.6 33.7 3.4 12 18.3 ESE 13 19 7 10 - - 0.0
07/05:30pm 37.9 32.7 2.4 11 18.7 ESE 19 28 10 15 - - 0.0
07/05:00pm 38.4 33.6 2.8 11 19.0 SE 17 22 9 12 - - 0.0
07/04:30pm 38.3 34.3 2.7 11 18.9 ESE 13 24 7 13 - - 0.0
07/04:00pm 38.5 34.9 2.8 11 19.0 S 11 20 6 11 - - 0.0
07/03:30pm 38.3 33.7 3.9 12 18.6 E 17 26 9 14 - - 0.0
07/03:00pm 39.2 35.5 4.6 12 19.0 SE 13 22 7 12 - - 0.0
07/02:30pm 38.2 35.5 3.8 12 18.6 SE 7 13 4 7 - - 0.0
07/02:00pm 38.5 34.4 4.1 12 18.7 ESE 15 30 8 16 - - 0.0
07/01:30pm 37.9 34.0 3.6 12 18.4 NE 13 24 7 13 - - 0.0
07/01:00pm 37.5 33.8 4.4 13 18.0 NE 13 22 7 12 - - 0.0
07/12:30pm 37.4 34.8 4.4 13 17.9 ESE 7 15 4 8 - - 0.0
07/12:00pm 36.7 32.5 3.8 13 17.6 NE 15 24 8 13 - - 0.0
07/11:30am 37.1 31.8 5.2 14 17.5 ENE 22 33 12 18 - - 0.0
07/11:00am 36.1 30.5 5.4 15 16.8 NE 24 35 13 19 - - 0.0
07/10:30am 35.8 30.0 6.1 16 16.4 ENE 26 35 14 19 - - 0.0
07/10:00am 34.4 28.3 6.7 18 15.4 ENE 28 37 15 20 - - 0.0
07/09:30am 33.1 27.1 7.1 20 14.4 ENE 28 37 15 20 - - 0.0
07/09:00am 30.8 25.0 9.6 27 12.1 ENE 30 41 16 22 - - 0.0
07/08:30am 28.9 24.0 10.1 31 10.7 ENE 26 37 14 20 - - 0.0
07/08:00am 26.7 23.1 12.0 40 8.6 E 22 32 12 17 - - 0.0
07/07:30am 24.8 21.3 13.4 49 6.7 E 24 32 13 17 - - 0.0
07/07:00am 23.1 20.7 14.4 58 5.2 ESE 20 32 11 17 - - 0.0
07/06:30am 21.8 19.1 14.7 64 4.2 ESE 22 32 12 17 - - 0.0
07/06:00am 21.3 19.0 14.7 66 3.9 ESE 20 30 11 16 - - 0.0
07/05:30am 21.8 18.8 14.7 64 4.2 ESE 24 33 13 18 - - 0.0
07/05:00am 22.1 19.0 14.5 62 4.5 ESE 24 33 13 18 - - 0.0
07/04:30am 22.3 18.9 14.7 62 4.5 ESE 26 35 14 19 - - 0.0
07/04:00am 22.3 19.2 14.4 61 4.7 ESE 24 33 13 18 - - 0.0
07/03:30am 22.0 19.3 14.6 63 4.4 SE 22 30 12 16 - - 0.0
07/03:00am 22.5 19.4 14.6 61 4.7 SE 24 33 13 18 - - 0.0
07/02:30am 21.3 19.2 14.7 66 3.9 SSE 19 22 10 12 - - 0.0
07/02:00am 20.8 18.7 15.1 70 3.4 SSE 20 24 11 13 - - 0.0
07/01:30am 21.0 18.1 15.1 69 3.5 SSE 24 28 13 15 - - 0.0
07/01:00am 21.0 17.8 15.3 70 3.4 SSE 26 30 14 16 - - 0.0
07/12:30am 20.6 17.8 15.4 72 3.1 SSE 24 26 13 14 - - 0.0
07/12:00am 19.9 17.3 14.9 73 3.0 SSE 22 24 12 13 - - 0.0
 
Date/Time
WST
Temp
°C
App
Temp
°C
Dew
Point
Rel
Hum
%
Delta-T
°C
Wind Press
QNH
hPa
Press
MSL
hPa
Rain
since 9 am
mm
Dir
 
Spd
km/h
Gust
km/h
Spd
kts
Gust
kts
06/11:30pm 21.2 18.3 15.1 68 3.7 SSE 24 28 13 15 - - 0.0
06/11:00pm 21.6 17.9 15.0 66 3.9 S 28 33 15 18 - - 0.0
06/10:30pm 21.9 17.8 15.0 65 4.1 S 30 35 16 19 - - 0.0
06/10:00pm 21.9 17.6 14.5 63 4.4 S 30 35 16 19 - - 0.0
06/09:30pm 22.6 17.9 14.2 59 5.0 S 32 37 17 20 - - 0.0
06/09:00pm 23.3 18.4 13.8 55 5.6 S 32 39 17 21 - - 0.0
06/08:30pm 24.5 19.3 12.8 48 6.8 S 32 39 17 21 - - 0.0
06/08:00pm 25.2 20.4 12.8 46 7.3 S 30 35 16 19 - - 0.0
06/07:30pm 26.1 20.6 11.8 41 8.3 S 32 39 17 21 - - 0.0
06/07:00pm 27.1 21.6 12.0 39 8.8 S 32 39 17 21 - - 0.0
06/06:30pm 28.4 22.1 11.0 34 10.0 S 35 43 19 23 - - 0.0
06/06:00pm 29.6 22.7 10.2 30 11.1 S 37 48 20 26 - - 0.0
06/05:30pm 31.0 24.3 10.9 29 11.7 S 37 46 20 25 - - 0.0
06/05:00pm 31.4 24.0 11.2 29 11.8 SSW 41 48 22 26 - - 0.0
06/04:30pm 31.9 25.9 13.2 32 11.3 SSW 37 46 20 25 - - 0.0
06/04:00pm 33.5 28.0 13.5 29 12.2 SW 35 46 19 25 - - 0.0
06/03:30pm 35.4 29.3 11.7 23 14.2 SW 35 44 19 24 - - 0.0
06/03:00pm 36.2 30.9 11.1 22 15.0 SW 30 44 16 24 - - 0.0
06/02:57pm 36.3 32.1 11.2 22 15.0 SSW 24 44 13 24 - - 0.0
06/02:30pm 37.3 33.6 4.3 13 17.9 SE 13 20 7 11 - - 0.0
06/02:00pm 37.5 34.9 4.4 13 18.0 WNW 7 11 4 6 - - 0.0
06/01:30pm 36.8 34.7 3.9 13 17.7 SSE 4 7 2 4 - - 0.0
06/01:00pm 36.2 33.7 4.5 14 17.1 SSW 7 15 4 8 - - 0.0
06/12:30pm 35.6 31.8 4.0 14 16.9 SW 13 20 7 11 - - 0.0
06/12:00pm 35.5 31.7 3.9 14 16.9 SE 13 22 7 12 - - 0.0
06/11:30am 34.8 32.4 5.3 16 16.0 ENE 7 13 4 7 - - 0.0
06/11:00am 34.7 32.7 6.9 18 15.5 E 7 17 4 9 - - 0.0
06/10:30am 33.6 31.5 6.8 19 14.8 NNE 7 15 4 8 - - 0.0
06/10:00am 32.3 30.6 8.5 23 13.4 NNE 7 15 4 8 - - 0.0
06/09:30am 31.0 28.9 8.1 24 12.8 NNE 9 19 5 10 - - 0.0
06/09:00am 29.9 27.4 8.3 26 12.0 NE 11 19 6 10 - - 0.0
06/08:30am 28.6 25.9 8.8 29 11.0 ENE 13 19 7 10 - - 0.0
06/08:00am 26.4 22.9 10.1 36 9.2 E 19 24 10 13 - - 0.0
06/07:30am 24.8 21.8 10.7 41 8.0 SE 17 20 9 11 - - 0.0
06/07:00am 22.2 19.4 11.3 50 6.1 SE 17 19 9 10 - - 0.0
06/06:30am 21.0 18.2 11.3 54 5.4 SSE 17 20 9 11 - - 0.0
06/06:00am 19.6 17.3 11.9 61 4.3 SSE 15 19 8 10 - - 0.0
06/05:30am 19.1 16.8 11.7 62 4.1 SSE 15 17 8 9 - - 0.0
06/05:00am 19.6 16.8 11.4 59 4.6 SSE 17 20 9 11 - - 0.0
06/04:30am 20.1 17.2 11.1 56 5.0 SSE 17 19 9 10 - - 0.0
06/04:00am 20.6 17.2 10.7 53 5.5 SSE 19 20 10 11 - - 0.0
06/03:30am 20.5 17.0 10.3 52 5.6 SSE 19 20 10 11 - - 0.0
06/03:00am 20.9 17.0 9.5 48 6.2 SSE 20 22 11 12 - - 0.0
06/02:30am 22.0 18.0 9.2 44 6.9 SSE 20 24 11 13 - - 0.0
06/02:00am 21.7 17.7 8.9 44 6.9 SSE 20 22 11 12 - - 0.0
06/01:30am 22.1 17.7 8.9 43 7.1 S 22 26 12 14 - - 0.0
06/01:00am 21.9 17.8 8.8 43 7.0 SSE 20 24 11 13 - - 0.0
06/12:30am 21.9 17.7 8.4 42 7.2 SSE 20 24 11 13 - - 0.0
06/12:00am 22.7 18.2 8.4 40 7.7 S 22 28 12 15 - - 0.0
 
Date/Time
WST
Temp
°C
App
Temp
°C
Dew
Point
Rel
Hum
%
Delta-T
°C
Wind Press
QNH
hPa
Press
MSL
hPa
Rain
since 9 am
mm
Dir
 
Spd
km/h
Gust
km/h
Spd
kts
Gust
kts
05/11:30pm 22.9 18.3 8.2 39 7.9 S 22 26 12 14 - - 0.0
05/11:00pm 23.3 18.3 8.2 38 8.1 SSE 24 28 13 15 - - 0.0
05/10:30pm 24.0 19.0 8.0 36 8.6 S 24 32 13 17 - - 0.0
05/10:00pm 24.2 19.1 7.8 35 8.8 SSE 24 28 13 15 - - 0.0
05/09:30pm 24.8 18.9 7.4 33 9.3 S 28 33 15 18 - - 0.0
05/09:00pm 24.9 19.8 7.5 33 9.3 S 24 30 13 16 - - 0.0
05/08:30pm 25.4 20.3 7.5 32 9.6 S 24 30 13 16 - - 0.0
05/08:00pm 26.2 21.5 7.7 31 10.0 S 22 28 12 15 - - 0.0
05/07:30pm 26.8 21.6 7.3 29 10.5 S 24 32 13 17 - - 0.0
05/07:00pm 28.1 21.7 6.8 26 11.4 S 30 37 16 20 - - 0.0
05/06:30pm 29.3 22.3 6.7 24 12.2 S 33 41 18 22 - - 0.0
05/06:00pm 30.1 22.4 7.3 24 12.5 SSW 37 44 20 24 - - 0.0
05/05:30pm 31.2 24.0 7.6 23 13.1 SSW 35 46 19 25 - - 0.0
05/05:00pm 31.4 23.2 8.4 24 12.9 SSW 41 50 22 27 - - 0.0
05/04:30pm 32.4 24.2 8.0 22 13.7 SSW 41 52 22 28 - - 0.0
05/04:00pm 33.6 26.0 7.6 20 14.6 SSW 37 54 20 29 - - 0.0

Other Formats:

Comma delimited format used in spreadsheet applications
http://www.bom.gov.au/fwo/IDW60801/IDW60801.94603.axf

JavaScript Object Notation format (JSON) in row-major order
http://www.bom.gov.au/fwo/IDW60801/IDW60801.94603.json